Time;durP1;ratioP1;P1;durP2;ratioP2;P2;SDS_P1;SDS_P2;PMS_P1;PMS_P2;Temp;Humidity;BMP_temperature;BMP_pressure;BME280_temperature;BME280_humidity;BME280_pressure;Samples;Min_cycle;Max_cycle;Signal;HPM_P1;HPM_P2
2024/01/08 00:01:40;;;;;;;49.63;27.45;;;;;;;-7.01;83.88;100382.56;5072487;28;20852;-80
2024/01/08 00:04:08;;;;;;;53.97;27.52;;;;;;;-6.88;83.94;100407.50;5072692;28;20092;-80
2024/01/08 00:06:34;;;;;;;50.20;26.67;;;;;;;-6.85;83.24;100416.91;5072090;28;20045;-80
2024/01/08 00:08:59;;;;;;;53.30;28.23;;;;;;;-6.88;84.09;100407.50;5072720;28;20107;-80
2024/01/08 00:11:25;;;;;;;56.55;29.50;;;;;;;-6.89;83.58;100388.06;5072734;28;20028;-80
2024/01/08 00:13:50;;;;;;;55.13;27.05;;;;;;;-7.04;82.70;100388.41;5071639;28;20025;-80
2024/01/08 00:16:16;;;;;;;48.50;26.05;;;;;;;-6.99;82.80;100411.34;5072999;28;20363;-81
2024/01/08 00:18:41;;;;;;;54.15;27.67;;;;;;;-7.06;83.00;100396.72;5072474;28;20111;-80
2024/01/08 00:21:06;;;;;;;55.08;28.23;;;;;;;-7.00;83.13;100431.53;5072725;28;20070;-80
2024/01/08 00:23:34;;;;;;;49.17;25.48;;;;;;;-7.24;82.94;100416.31;5072521;28;20444;-80
2024/01/08 00:26:00;;;;;;;51.38;27.00;;;;;;;-7.12;82.50;100437.88;5071275;28;20025;-80
2024/01/08 00:28:26;;;;;;;52.40;28.73;;;;;;;-7.39;82.43;100396.34;5072050;28;20107;-80
2024/01/08 00:30:52;;;;;;;94.18;42.35;;;;;;;-7.23;82.49;100415.50;5072522;28;20017;-80
2024/01/08 00:33:17;;;;;;;118.03;48.00;;;;;;;-7.16;83.61;100430.09;5072400;28;20430;-79
2024/01/08 00:35:42;;;;;;;73.38;33.67;;;;;;;-7.14;83.92;100415.84;5071250;28;20210;-80
2024/01/08 00:38:08;;;;;;;71.80;36.75;;;;;;;-6.92;83.95;100450.41;5072562;28;20051;-80
2024/01/08 00:40:33;;;;;;;56.42;29.15;;;;;;;-7.17;83.71;100406.47;5074673;28;20035;-80
2024/01/08 00:42:59;;;;;;;60.88;29.63;;;;;;;-7.35;84.58;100409.19;5076286;28;20360;-80
2024/01/08 00:45:25;;;;;;;53.38;29.88;;;;;;;-7.16;84.57;100419.97;5075788;28;20028;-80
2024/01/08 00:47:51;;;;;;;55.60;30.40;;;;;;;-7.10;84.86;100448.06;5075955;28;20494;-81
2024/01/08 00:50:17;;;;;;;74.43;37.92;;;;;;;-7.33;84.71;100414.28;5076122;28;20085;-80
2024/01/08 00:52:42;;;;;;;64.53;35.63;;;;;;;-7.10;83.88;100453.97;5075606;28;20024;-80
2024/01/08 00:55:11;;;;;;;58.22;34.10;;;;;;;-7.17;84.64;100456.22;5075958;28;20078;-80
2024/01/08 00:57:37;;;;;;;57.22;30.35;;;;;;;-7.44;83.79;100421.50;5075478;28;20024;-80
2024/01/08 01:00:04;;;;;;;63.58;33.63;;;;;;;-7.25;84.08;100450.88;5076013;28;20025;-80
2024/01/08 01:02:30;;;;;;;56.65;28.55;;;;;;;-7.08;84.30;100464.16;5074518;28;20060;-80
2024/01/08 01:04:55;;;;;;;59.28;31.25;;;;;;;-7.30;83.39;100432.13;5075488;28;20079;-80
2024/01/08 01:07:21;;;;;;;53.45;28.27;;;;;;;-7.37;83.55;100426.00;5074395;28;20429;-80
2024/01/08 01:09:47;;;;;;;50.97;28.20;;;;;;;-7.41;83.50;100430.88;5075534;28;20056;-80
2024/01/08 01:12:12;;;;;;;49.95;27.08;;;;;;;-7.43;82.76;100425.75;5075710;28;20027;-80
2024/01/08 01:14:37;;;;;;;54.92;26.88;;;;;;;-7.30;83.16;100454.91;5075119;28;20028;-80
2024/01/08 01:17:03;;;;;;;51.15;28.50;;;;;;;-7.18;82.97;100464.63;5075600;28;20028;-80
2024/01/08 01:19:28;;;;;;;51.75;26.85;;;;;;;-7.19;82.16;100458.72;5075275;28;20025;-80
2024/01/08 01:21:55;;;;;;;43.53;25.15;;;;;;;-7.11;82.55;100457.31;5075393;28;20032;-80
2024/01/08 01:24:20;;;;;;;49.13;25.50;;;;;;;-7.13;82.12;100440.34;5074949;28;20041;-80
2024/01/08 01:26:46;;;;;;;49.30;24.98;;;;;;;-7.03;82.24;100463.53;5074682;28;20179;-79
2024/01/08 01:29:11;;;;;;;46.10;24.92;;;;;;;-7.21;82.07;100457.78;5074460;28;20412;-79
2024/01/08 01:31:37;;;;;;;46.35;24.13;;;;;;;-7.11;81.89;100482.66;5074636;28;20030;-79
2024/01/08 01:34:03;;;;;;;45.15;24.60;;;;;;;-7.28;81.68;100440.66;5074611;28;20031;-79
2024/01/08 01:36:29;;;;;;;48.88;25.80;;;;;;;-7.17;82.09;100448.63;5074707;28;20110;-79
2024/01/08 01:38:55;;;;;;;49.22;27.10;;;;;;;-7.20;82.44;100440.94;5074584;28;20103;-79
2024/01/08 01:41:20;;;;;;;49.13;25.25;;;;;;;-7.16;82.33;100452.88;5074589;28;20456;-80
2024/01/08 01:43:46;;;;;;;51.67;25.95;;;;;;;-7.32;81.91;100443.88;5074535;28;20028;-81
2024/01/08 01:46:25;;;;;;;43.13;24.00;;;;;;;-7.20;82.37;100440.94;5074630;28;20080;-80
2024/01/08 01:48:51;;;;;;;42.58;22.20;;;;;;;-7.06;82.35;100472.69;5074456;28;20075;-80
2024/01/08 01:51:16;;;;;;;40.08;22.05;;;;;;;-7.12;82.59;100477.50;5072260;28;20108;-81
2024/01/08 01:53:42;;;;;;;41.70;23.25;;;;;;;-7.43;82.00;100440.06;5073168;28;20024;-80
2024/01/08 01:56:08;;;;;;;41.60;23.10;;;;;;;-7.39;83.13;100469.75;5074345;28;20025;-80
2024/01/08 01:58:34;;;;;;;47.70;24.55;;;;;;;-7.56;83.20;100436.19;5073971;28;20380;-80
2024/01/08 02:01:00;;;;;;;45.10;24.27;;;;;;;-7.42;83.07;100456.97;5074156;28;20024;-80
2024/01/08 02:03:26;;;;;;;49.83;25.27;;;;;;;-7.31;83.37;100476.81;5072740;28;20024;-80
2024/01/08 02:05:54;;;;;;;54.63;27.20;;;;;;;-7.23;83.78;100492.31;5073434;28;20136;-80
2024/01/08 02:08:21;;;;;;;54.50;26.27;;;;;;;-7.45;83.79;100465.31;5073986;28;20121;-81
2024/01/08 02:10:47;;;;;;;47.35;26.40;;;;;;;-7.32;83.59;100484.38;5073748;28;20052;-81
2024/01/08 02:13:12;;;;;;;53.60;27.65;;;;;;;-7.26;83.91;100481.19;5073933;28;20102;-80
2024/01/08 02:15:37;;;;;;;50.72;24.45;;;;;;;-7.22;83.33;100477.97;5073714;28;20025;-81
2024/01/08 02:18:03;;;;;;;48.22;24.70;;;;;;;-7.30;83.16;100465.03;5070986;28;20499;-81
2024/01/08 02:20:29;;;;;;;48.83;25.02;;;;;;;-7.20;82.98;100499.16;5054443;28;20029;-81
2024/01/08 02:22:54;;;;;;;44.13;26.55;;;;;;;-7.44;83.48;100486.41;5070851;28;20107;-81
2024/01/08 02:25:19;;;;;;;49.88;26.08;;;;;;;-7.32;83.21;100476.78;5071068;28;20447;-81
2024/01/08 02:27:45;;;;;;;51.65;27.77;;;;;;;-7.22;83.82;100521.00;5070892;28;20499;-80
2024/01/08 02:30:11;;;;;;;53.20;26.40;;;;;;;-7.33;84.28;100500.31;5070911;28;20701;-80
2024/01/08 02:32:36;;;;;;;46.55;23.65;;;;;;;-7.57;84.11;100473.28;5070409;28;20115;-80
2024/01/08 02:35:02;;;;;;;49.10;26.88;;;;;;;-7.41;85.18;100507.66;5071003;28;20353;-80
2024/01/08 02:37:27;;;;;;;48.78;25.85;;;;;;;-7.31;85.54;100517.31;5070839;28;20051;-80
2024/01/08 02:39:52;;;;;;;49.35;25.90;;;;;;;-7.44;85.23;100489.81;5070769;28;20020;-81
2024/01/08 02:42:18;;;;;;;52.25;26.52;;;;;;;-7.45;85.26;100492.28;5070872;28;20024;-81
2024/01/08 02:44:44;;;;;;;51.60;26.02;;;;;;;-7.54;85.08;100485.19;5070459;28;20127;-80
2024/01/08 02:47:10;;;;;;;47.83;25.75;;;;;;;-7.51;85.42;100515.66;5070799;28;20016;-81
2024/01/08 02:49:35;;;;;;;49.38;25.88;;;;;;;-7.62;85.06;100502.59;5065692;28;20032;-81
2024/01/08 02:52:00;;;;;;;53.63;26.27;;;;;;;-7.75;84.61;100489.38;5073247;28;20047;-81
2024/01/08 02:54:26;;;;;;;51.10;26.10;;;;;;;-7.85;84.89;100500.81;5073241;28;20448;-81
2024/01/08 02:56:51;;;;;;;51.30;26.58;;;;;;;-7.78;84.29;100526.41;5072925;28;20016;-80
2024/01/08 02:59:17;;;;;;;50.67;27.70;;;;;;;-7.76;84.67;100541.63;5072991;28;20111;-81
2024/01/08 03:01:42;;;;;;;50.85;26.05;;;;;;;-7.89;84.13;100541.94;5072995;28;20051;-80
2024/01/08 03:04:08;;;;;;;51.17;25.40;;;;;;;-7.97;83.87;100518.00;5072894;28;20103;-80
2024/01/08 03:06:33;;;;;;;48.92;25.13;;;;;;;-8.04;83.09;100520.28;5073029;28;20494;-80
2024/01/08 03:08:59;;;;;;;47.38;24.80;;;;;;;-8.16;82.80;100502.06;5072967;28;20073;-80
2024/01/08 03:11:24;;;;;;;50.28;24.38;;;;;;;-8.01;82.25;100543.94;5073335;28;20036;-81
2024/01/08 03:13:49;;;;;;;50.80;26.67;;;;;;;-7.90;82.77;100562.97;5072656;28;20024;-80
2024/01/08 03:16:18;;;;;;;48.90;25.00;;;;;;;-7.89;82.28;100554.56;5072841;28;20096;-80
2024/01/08 03:18:44;;;;;;;46.97;24.35;;;;;;;-7.99;82.36;100550.81;5072575;28;20024;-80
2024/01/08 03:21:09;;;;;;;49.13;24.27;;;;;;;-8.14;81.80;100565.31;5072857;28;20094;-80
2024/01/08 03:23:35;;;;;;;61.50;31.35;;;;;;;-8.30;82.25;100521.72;5072486;28;20024;-80
2024/01/08 03:26:01;;;;;;;70.03;32.08;;;;;;;-8.02;82.32;100578.47;5072793;28;20333;-80
2024/01/08 03:28:26;;;;;;;135.50;58.33;;;;;;;-8.23;81.99;100578.41;5072391;28;20085;-81
2024/01/08 03:30:51;;;;;;;82.65;42.35;;;;;;;-8.34;82.34;100595.66;5072424;28;20020;-80
2024/01/08 03:33:17;;;;;;;55.25;29.30;;;;;;;-8.38;82.66;100582.84;5072903;28;20027;-80
2024/01/08 03:35:43;;;;;;;62.42;32.67;;;;;;;-8.51;82.43;100581.44;5072435;28;20101;-80
2024/01/08 03:38:08;;;;;;;61.75;31.92;;;;;;;-8.52;82.10;100573.78;5072553;28;20021;-80
2024/01/08 03:40:34;;;;;;;68.78;36.97;;;;;;;-8.43;82.01;100589.34;5071189;28;20514;-80
2024/01/08 03:43:00;;;;;;;73.20;38.58;;;;;;;-8.56;82.26;100555.09;5072341;28;20455;-80
2024/01/08 03:45:25;;;;;;;66.55;35.30;;;;;;;-8.52;81.80;100563.66;5072600;28;20024;-81
2024/01/08 03:47:51;;;;;;;105.18;58.03;;;;;;;-8.45;81.70;100590.94;5072252;28;20032;-81
2024/01/08 03:50:16;;;;;;;60.13;33.20;;;;;;;-8.40;81.41;100594.53;5072462;28;20050;-80
2024/01/08 03:52:41;;;;;;;56.97;27.02;;;;;;;-8.55;81.13;100566.94;5072271;28;20028;-80
2024/01/08 03:55:09;;;;;;;51.38;27.02;;;;;;;-8.38;81.41;100593.81;5071115;28;20029;-80
2024/01/08 03:57:35;;;;;;;82.25;40.78;;;;;;;-8.26;81.05;100601.00;5072317;28;20052;-81
2024/01/08 04:00:00;;;;;;;54.72;27.75;;;;;;;-8.37;80.75;100564.34;5071882;28;20052;-80
2024/01/08 04:02:26;;;;;;;58.70;30.05;;;;;;;-8.42;80.56;100564.16;5072298;28;20107;-80
2024/01/08 04:04:52;;;;;;;48.13;24.20;;;;;;;-8.14;80.45;100609.13;5072108;28;20032;-80
2024/01/08 04:07:17;;;;;;;53.88;27.45;;;;;;;-8.20;80.46;100606.34;5072321;28;20454;-80
2024/01/08 04:09:43;;;;;;;55.40;27.42;;;;;;;-8.28;80.21;100590.00;5072071;28;20036;-80
2024/01/08 04:12:08;;;;;;;51.47;25.75;;;;;;;-8.38;80.13;100585.38;5072598;28;20039;-80
2024/01/08 04:14:34;;;;;;;50.38;26.55;;;;;;;-8.23;79.53;100618.00;5072924;28;20451;-80
2024/01/08 04:16:59;;;;;;;50.75;26.63;;;;;;;-8.46;79.60;100627.97;5076290;28;20025;-80
2024/01/08 04:19:25;;;;;;;56.35;28.73;;;;;;;-8.53;80.08;100595.66;5076100;28;20095;-80
2024/01/08 04:21:50;;;;;;;61.20;30.67;;;;;;;-8.45;80.44;100591.81;5075981;28;20016;-80
2024/01/08 04:24:16;;;;;;;55.88;28.38;;;;;;;-8.44;79.54;100601.09;5076056;28;20028;-80
2024/01/08 04:26:41;;;;;;;56.60;28.92;;;;;;;-8.66;79.70;100571.50;5075604;28;20024;-81
2024/01/08 04:29:08;;;;;;;52.72;27.05;;;;;;;-8.22;79.69;100644.97;5075866;28;20029;-80
2024/01/08 04:31:33;;;;;;;56.90;29.02;;;;;;;-8.17;79.81;100633.44;5076084;28;20030;-80
2024/01/08 04:33:59;;;;;;;62.85;28.63;;;;;;;-8.16;79.46;100627.56;5075611;28;20037;-80
2024/01/08 04:36:24;;;;;;;52.15;27.83;;;;;;;-8.29;79.68;100616.91;5075780;28;20053;-80
2024/01/08 04:38:50;;;;;;;52.67;25.42;;;;;;;-8.32;79.11;100618.44;5075477;28;20021;-80
2024/01/08 04:41:21;;;;;;;52.83;25.42;;;;;;;-8.29;79.41;100642.19;5075601;28;20032;-80
2024/01/08 04:43:47;;;;;;;61.50;30.65;;;;;;;-8.24;79.51;100631.44;5074135;28;20452;-80
2024/01/08 04:46:13;;;;;;;57.53;28.42;;;;;;;-8.14;79.01;100654.63;5075658;28;20020;-81
2024/01/08 04:48:40;;;;;;;52.03;26.30;;;;;;;-8.35;79.25;100618.31;5075691;28;20059;-80
2024/01/08 04:51:05;;;;;;;58.20;28.67;;;;;;;-8.37;79.05;100622.47;5075601;28;20017;-80
2024/01/08 04:53:35;;;;;;;55.90;27.17;;;;;;;-8.19;79.33;100647.66;5075556;28;20035;-80
2024/01/08 04:56:01;;;;;;;52.67;25.52;;;;;;;-8.15;79.02;100669.75;5075775;28;20033;-80
2024/01/08 04:58:27;;;;;;;55.33;25.98;;;;;;;-8.12;78.71;100675.81;5076217;28;20119;-80
2024/01/08 05:00:53;;;;;;;55.15;26.73;;;;;;;-8.11;79.07;100664.88;5074552;28;20116;-80
2024/01/08 05:03:18;;;;;;;50.50;27.17;;;;;;;-8.13;78.96;100663.97;5076121;28;20032;-80
2024/01/08 05:05:43;;;;;;;52.67;27.17;;;;;;;-8.08;79.21;100669.22;5075622;28;20048;-80
2024/01/08 05:08:09;;;;;;;53.47;28.00;;;;;;;-8.09;79.14;100675.06;5075646;28;20107;-80
2024/01/08 05:10:34;;;;;;;59.63;29.60;;;;;;;-8.07;78.88;100676.00;5075292;28;20031;-80
2024/01/08 05:12:59;;;;;;;49.30;26.33;;;;;;;-8.14;78.91;100653.75;5075057;28;20164;-80
2024/01/08 05:15:25;;;;;;;56.83;27.70;;;;;;;-8.25;78.95;100655.84;5075833;28;20053;-80
2024/01/08 05:17:50;;;;;;;53.05;28.48;;;;;;;-8.30;79.00;100690.13;5075180;28;20421;-81
2024/01/08 05:20:16;;;;;;;56.10;29.00;;;;;;;-8.58;79.80;100656.06;5075736;28;20032;-80
2024/01/08 05:22:41;;;;;;;51.72;26.48;;;;;;;-8.33;80.14;100690.00;5075450;28;20028;-80
2024/01/08 05:25:08;;;;;;;57.38;30.40;;;;;;;-8.54;80.47;100672.22;5075735;28;20077;-80
2024/01/08 05:27:33;;;;;;;54.13;27.52;;;;;;;-8.57;80.49;100690.63;5074503;28;20070;-80
2024/01/08 05:29:59;;;;;;;50.28;25.83;;;;;;;-8.66;80.20;100704.47;5074530;28;20108;-80
2024/01/08 05:32:24;;;;;;;55.10;28.25;;;;;;;-8.64;80.48;100702.88;5075023;28;20028;-80
2024/01/08 05:34:49;;;;;;;66.38;31.02;;;;;;;-8.72;80.46;100702.53;5074717;28;20020;-80
2024/01/08 05:37:15;;;;;;;61.45;29.98;;;;;;;-8.94;81.24;100684.63;5075251;28;20508;-80
2024/01/08 05:39:41;;;;;;;59.78;30.77;;;;;;;-8.91;81.17;100697.41;5074750;28;20025;-81
2024/01/08 05:42:06;;;;;;;55.38;28.23;;;;;;;-8.69;82.30;100712.78;5074351;28;20024;-81
2024/01/08 05:44:31;;;;;;;55.08;28.17;;;;;;;-8.91;82.19;100672.16;5074318;28;20463;-81
2024/01/08 05:46:57;;;;;;;57.55;28.52;;;;;;;-8.87;81.90;100691.69;5074281;28;20024;-80
2024/01/08 05:49:23;;;;;;;56.55;28.15;;;;;;;-8.86;81.88;100706.91;5074804;28;20027;-85
2024/01/08 05:51:49;;;;;;;54.53;27.27;;;;;;;-8.78;81.35;100703.91;5072754;28;20340;-85
2024/01/08 05:54:14;;;;;;;56.42;27.05;;;;;;;-8.64;81.72;100730.66;5074383;28;20039;-85
2024/01/08 05:56:39;;;;;;;48.65;24.17;;;;;;;-8.97;81.23;100703.03;5073053;28;20111;-85
2024/01/08 05:59:05;;;;;;;54.40;25.58;;;;;;;-9.05;81.06;100721.97;5072661;28;20448;-85
2024/01/08 06:01:31;;;;;;;53.70;26.33;;;;;;;-9.27;81.51;100699.84;5074226;28;20190;-85
2024/01/08 06:03:56;;;;;;;64.75;27.73;;;;;;;-8.98;82.13;100739.13;5073488;28;20190;-85
2024/01/08 06:06:22;;;;;;;60.13;27.05;;;;;;;-9.07;82.34;100694.13;5073855;28;20119;-81
2024/01/08 06:08:48;;;;;;;47.90;24.90;;;;;;;-8.81;82.30;100740.81;5073797;28;20035;-82
2024/01/08 06:11:14;;;;;;;55.40;26.67;;;;;;;-8.90;81.64;100747.09;5073755;28;20024;-83
2024/01/08 06:13:39;;;;;;;58.72;28.60;;;;;;;-9.12;81.46;100725.84;5073965;28;20434;-82
2024/01/08 06:16:05;;;;;;;57.45;29.08;;;;;;;-9.02;82.84;100726.28;5073661;28;20402;-83
2024/01/08 06:18:31;;;;;;;56.15;27.45;;;;;;;-9.05;82.66;100706.84;5073775;28;20418;-83
2024/01/08 06:20:57;;;;;;;61.78;30.48;;;;;;;-9.05;83.42;100719.47;5073589;28;20016;-82
2024/01/08 06:23:22;;;;;;;59.38;27.95;;;;;;;-8.94;83.59;100738.50;5073461;28;20027;-82
2024/01/08 06:25:47;;;;;;;73.70;33.50;;;;;;;-8.83;83.26;100755.03;5073718;28;20549;-83
2024/01/08 06:28:13;;;;;;;67.85;33.35;;;;;;;-8.78;83.37;100757.78;5073614;28;20024;-83
2024/01/08 06:30:38;;;;;;;68.88;31.88;;;;;;;-8.86;83.23;100756.53;5073511;28;20444;-83
2024/01/08 06:33:05;;;;;;;67.03;31.45;;;;;;;-9.09;83.00;100740.28;5073271;28;20031;-82
2024/01/08 06:35:31;;;;;;;123.55;48.55;;;;;;;-9.14;83.16;100737.53;5072169;28;20021;-82
2024/01/08 06:37:56;;;;;;;93.57;42.78;;;;;;;-9.05;83.29;100753.13;5071467;28;20024;-81
2024/01/08 06:40:22;;;;;;;89.00;39.15;;;;;;;-8.84;83.65;100783.59;5072093;28;20028;-83
2024/01/08 06:42:47;;;;;;;76.65;35.75;;;;;;;-8.73;83.64;100778.19;5071765;28;20115;-83
2024/01/08 06:45:13;;;;;;;74.72;34.35;;;;;;;-8.71;83.57;100772.44;5073516;28;20103;-83
2024/01/08 06:47:38;;;;;;;88.20;41.72;;;;;;;-8.86;83.30;100747.31;5072261;28;20029;-82
2024/01/08 06:50:04;;;;;;;63.17;29.55;;;;;;;-8.94;83.41;100766.25;5073237;28;20047;-82
2024/01/08 06:52:30;;;;;;;71.35;34.08;;;;;;;-8.81;83.06;100792.97;5073447;28;20044;-82
2024/01/08 06:54:55;;;;;;;144.57;56.40;;;;;;;-9.56;83.37;100700.94;5073209;28;20458;-82
2024/01/08 06:57:22;;;;;;;178.27;67.80;;;;;;;-9.31;83.72;100764.44;5074381;28;20020;-82
2024/01/08 06:59:48;;;;;;;98.95;45.08;;;;;;;-9.15;83.74;100793.81;5074105;28;20059;-82
2024/01/08 07:02:13;;;;;;;86.10;38.75;;;;;;;-9.36;82.89;100795.25;5074133;28;20456;-82
2024/01/08 07:04:39;;;;;;;74.50;34.55;;;;;;;-9.36;83.04;100805.34;5073203;28;20032;-83
2024/01/08 07:07:04;;;;;;;65.78;34.03;;;;;;;-9.72;83.28;100816.91;5073080;28;20177;-82
2024/01/08 07:09:29;;;;;;;59.20;29.75;;;;;;;-9.88;83.44;100823.63;5073136;28;20028;-82
2024/01/08 07:11:55;;;;;;;68.70;32.47;;;;;;;-10.12;84.36;100792.06;5072863;28;20027;-83
2024/01/08 07:14:20;;;;;;;68.25;31.67;;;;;;;-10.34;84.61;100769.91;5073350;28;20542;-82
2024/01/08 07:16:46;;;;;;;64.50;33.10;;;;;;;-10.14;84.78;100802.06;5073441;28;20107;-82
2024/01/08 07:19:11;;;;;;;74.05;34.53;;;;;;;-10.03;85.30;100824.44;5071904;28;20029;-82
2024/01/08 07:21:36;;;;;;;62.70;29.45;;;;;;;-10.12;85.43;100819.78;5073564;28;20353;-82
2024/01/08 07:24:03;;;;;;;58.25;27.92;;;;;;;-10.06;85.47;100838.63;5073381;28;20062;-82
2024/01/08 07:26:28;;;;;;;61.55;29.13;;;;;;;-10.35;85.55;100784.16;5074079;28;20050;-82
2024/01/08 07:28:54;;;;;;;67.93;32.25;;;;;;;-10.08;85.62;100814.13;5073116;28;20452;-81
2024/01/08 07:31:20;;;;;;;63.55;27.67;;;;;;;-9.91;85.42;100817.56;5073310;28;20020;-83
2024/01/08 07:33:45;;;;;;;55.55;25.40;;;;;;;-9.88;85.02;100846.31;5074243;28;20025;-83
2024/01/08 07:36:11;;;;;;;65.20;30.05;;;;;;;-10.02;85.16;100833.78;5073999;28;20028;-83
2024/01/08 07:38:37;;;;;;;92.95;40.50;;;;;;;-10.06;85.14;100850.38;5072134;28;20024;-83
2024/01/08 07:41:03;;;;;;;80.72;34.42;;;;;;;-10.41;85.50;100793.88;5073524;28;20058;-83
2024/01/08 07:43:29;;;;;;;60.72;28.58;;;;;;;-9.94;85.78;100860.22;5071910;28;20056;-83
2024/01/08 07:45:54;;;;;;;95.15;36.85;;;;;;;-9.80;85.46;100856.81;5072583;28;20142;-83
2024/01/08 07:48:20;;;;;;;91.93;37.30;;;;;;;-10.15;85.13;100795.31;5073934;28;20435;-82
2024/01/08 07:50:46;;;;;;;65.97;29.13;;;;;;;-10.15;85.19;100832.25;5075114;28;20447;-82
2024/01/08 07:53:12;;;;;;;78.82;35.42;;;;;;;-10.14;85.00;100852.47;5077466;28;20097;-83
2024/01/08 07:55:38;;;;;;;82.13;34.55;;;;;;;-10.36;85.30;100819.34;5077880;28;20459;-87
2024/01/08 07:58:03;;;;;;;72.15;31.65;;;;;;;-10.03;85.46;100869.81;5066579;28;20055;-87
2024/01/08 08:00:29;;;;;;;69.15;30.15;;;;;;;-10.14;85.32;100851.59;5058444;28;20025;-87
2024/01/08 08:02:55;;;;;;;57.72;26.98;;;;;;;-9.92;85.19;100887.28;5056507;28;20028;-87
2024/01/08 08:05:20;;;;;;;66.68;28.30;;;;;;;-10.06;84.82;100883.13;5056763;28;20487;-88
2024/01/08 08:07:46;;;;;;;113.55;46.28;;;;;;;-10.16;85.12;100869.13;5057173;28;20092;-86
2024/01/08 08:10:11;;;;;;;75.07;32.20;;;;;;;-10.13;85.69;100886.94;5055609;28;20116;-87
2024/01/08 08:12:37;;;;;;;55.80;25.42;;;;;;;-10.08;85.29;100892.25;5056537;28;20066;-89
2024/01/08 08:15:03;;;;;;;69.47;32.22;;;;;;;-10.10;85.54;100887.13;5056295;28;20483;-86
2024/01/08 08:17:28;;;;;;;119.82;46.33;;;;;;;-9.98;85.84;100897.03;5057134;28;20044;-86
2024/01/08 08:19:54;;;;;;;83.05;36.72;;;;;;;-10.07;86.10;100868.78;5056341;28;20025;-86
2024/01/08 08:22:19;;;;;;;93.05;37.63;;;;;;;-9.88;85.98;100890.81;5057460;28;20025;-86
2024/01/08 08:24:47;;;;;;;121.72;48.20;;;;;;;-10.27;85.82;100836.63;5057576;28;20021;-86
2024/01/08 08:27:12;;;;;;;113.38;44.60;;;;;;;-9.96;85.61;100870.25;5056711;28;20166;-86
2024/01/08 08:29:42;;;;;;;102.72;42.13;;;;;;;-9.66;86.11;100911.38;5075490;28;20103;-86
2024/01/08 08:32:08;;;;;;;97.18;39.97;;;;;;;-9.52;85.59;100911.25;5058801;28;20379;-86
2024/01/08 08:34:35;;;;;;;89.78;31.33;;;;;;;-9.74;85.26;100892.44;5074453;28;20127;-87
2024/01/08 08:37:00;;;;;;;103.15;35.20;;;;;;;-9.66;84.69;100908.84;5074781;28;20024;-87
2024/01/08 08:39:26;;;;;;;114.45;45.88;;;;;;;-9.51;85.40;100920.56;5058352;28;20480;-87
2024/01/08 08:41:51;;;;;;;86.70;38.05;;;;;;;-9.49;84.94;100937.50;5060442;28;20420;-88
2024/01/08 08:44:17;;;;;;;126.97;45.35;;;;;;;-9.55;84.91;100932.16;5057147;28;20029;-87
2024/01/08 08:46:43;;;;;;;81.07;31.40;;;;;;;-9.49;84.71;100937.50;5057508;28;20020;-87
2024/01/08 08:49:10;;;;;;;90.47;32.13;;;;;;;-9.55;84.58;100942.22;5057351;28;20028;-88
2024/01/08 08:51:38;;;;;;;70.53;30.40;;;;;;;-9.44;84.91;100928.53;5060107;28;20052;-88
2024/01/08 08:54:04;;;;;;;59.15;26.92;;;;;;;-9.35;84.38;100935.75;5093706;28;20089;-88
2024/01/08 08:56:35;;;;;;;99.68;35.08;;;;;;;-9.25;84.26;100954.75;5093966;28;20016;-88
2024/01/08 08:59:02;;;;;;;91.57;36.45;;;;;;;-9.45;84.44;100944.47;5093356;28;20127;-87
2024/01/08 09:01:28;;;;;;;59.08;26.25;;;;;;;-9.34;84.62;100947.56;5074288;28;20517;-87
2024/01/08 09:03:54;;;;;;;81.20;31.75;;;;;;;-9.36;84.36;100944.09;5057833;28;20515;-86
2024/01/08 09:06:20;;;;;;;53.53;24.85;;;;;;;-9.40;84.74;100937.13;5057190;28;20044;-86
2024/01/08 09:08:48;;;;;;;55.08;25.05;;;;;;;-9.28;84.31;100970.59;5057809;28;20052;-86
2024/01/08 09:11:13;;;;;;;80.80;34.05;;;;;;;-9.35;84.52;100953.41;5057110;28;20024;-86
2024/01/08 09:13:42;;;;;;;68.32;30.00;;;;;;;-9.46;84.23;100942.72;5057344;28;20032;-85
2024/01/08 09:16:11;;;;;;;95.28;37.15;;;;;;;-9.33;84.32;100959.38;5056930;28;20463;-87
2024/01/08 09:18:45;;;;;;;64.53;29.60;;;;;;;-9.27;84.39;100976.50;5056266;28;20036;-87
2024/01/08 09:21:11;;;;;;;86.00;33.58;;;;;;;-9.25;84.12;100972.44;5056093;28;20028;-85
2024/01/08 09:23:38;;;;;;;68.68;27.95;;;;;;;-9.30;84.80;100970.53;5072924;28;20206;-86
2024/01/08 09:26:04;;;;;;;92.85;39.75;;;;;;;-9.28;84.84;100974.78;5056388;28;20036;-86
2024/01/08 09:28:30;;;;;;;69.88;32.08;;;;;;;-9.15;85.29;100975.50;5057749;28;20525;-85
2024/01/08 09:30:55;;;;;;;99.25;38.47;;;;;;;-9.12;85.32;100983.25;5074954;28;20103;-86
2024/01/08 09:33:21;;;;;;;97.50;38.25;;;;;;;-9.22;85.41;100965.03;5057308;28;20032;-86
2024/01/08 09:35:47;;;;;;;60.47;26.70;;;;;;;-9.36;85.22;100951.66;5072391;28;20036;-86
2024/01/08 09:38:13;;;;;;;79.55;35.38;;;;;;;-9.20;85.51;100956.72;5074252;28;20028;-86
2024/01/08 09:40:38;;;;;;;99.38;41.35;;;;;;;-9.06;85.64;100963.41;5075088;28;20447;-85
2024/01/08 09:43:06;;;;;;;113.32;41.10;;;;;;;-8.98;85.26;100986.50;5076042;28;20033;-86
2024/01/08 09:45:32;;;;;;;75.07;32.25;;;;;;;-9.09;85.86;100969.94;5076035;28;20025;-86
2024/01/08 09:47:58;;;;;;;65.90;29.88;;;;;;;-9.00;85.46;100969.56;5080145;28;20020;-85
2024/01/08 09:50:26;;;;;;;69.38;32.25;;;;;;;-9.18;85.50;100924.03;5082193;28;20037;-85
2024/01/08 09:52:53;;;;;;;75.95;29.50;;;;;;;-9.03;84.81;100974.44;5082628;28;20138;-85
2024/01/08 09:55:19;;;;;;;54.33;26.70;;;;;;;-9.31;84.25;100947.75;5081786;28;20035;-86
2024/01/08 09:57:45;;;;;;;91.00;34.97;;;;;;;-9.30;83.79;100954.53;5082060;28;20024;-85
2024/01/08 10:00:11;;;;;;;54.30;25.23;;;;;;;-9.39;84.38;100932.19;5082727;28;20020;-85
2024/01/08 10:02:38;;;;;;;65.63;27.90;;;;;;;-9.07;84.74;100959.13;5081443;28;20027;-85
2024/01/08 10:05:06;;;;;;;61.50;29.95;;;;;;;-9.14;84.76;100951.16;5080812;28;20095;-83
2024/01/08 10:07:36;;;;;;;60.70;27.38;;;;;;;-9.20;84.15;100956.72;5081455;28;20077;-85
2024/01/08 10:10:03;;;;;;;58.80;29.88;;;;;;;-9.12;84.93;100947.06;5081379;28;20060;-85
2024/01/08 10:12:31;;;;;;;77.07;34.13;;;;;;;-8.97;84.26;100983.22;5079746;28;20024;-85
2024/01/08 10:14:57;;;;;;;81.25;35.22;;;;;;;-8.87;84.55;100987.94;5079227;28;20032;-85
2024/01/08 10:17:22;;;;;;;67.20;30.90;;;;;;;-8.84;84.53;100980.53;5080412;28;20024;-85
2024/01/08 10:19:48;;;;;;;64.07;29.90;;;;;;;-8.86;84.18;100986.28;5079493;28;20368;-84
2024/01/08 10:22:14;;;;;;;63.50;27.73;;;;;;;-8.94;84.39;100970.72;5081221;28;20406;-83
2024/01/08 10:24:43;;;;;;;61.63;32.17;;;;;;;-8.81;84.12;100989.91;5079138;28;20063;-86
2024/01/08 10:27:09;;;;;;;66.53;31.58;;;;;;;-8.95;84.02;100973.19;5079655;28;20024;-83
2024/01/08 10:29:40;;;;;;;239.68;86.43;;;;;;;-8.76;84.42;100977.53;5079483;28;20017;-87
2024/01/08 10:32:06;;;;;;;99.38;41.67;;;;;;;-8.54;84.04;100987.97;5074509;28;20065;-87
2024/01/08 10:34:34;;;;;;;139.70;55.42;;;;;;;-8.35;84.23;100979.63;5072655;28;20024;-87
2024/01/08 10:36:59;;;;;;;105.50;43.47;;;;;;;-8.21;83.80;100991.31;5073643;28;20024;-86
2024/01/08 10:39:27;;;;;;;68.15;31.38;;;;;;;-8.13;82.84;100981.56;5072160;28;20031;-86
2024/01/08 10:41:53;;;;;;;79.05;35.47;;;;;;;-7.99;82.37;100984.78;5072351;28;20463;-87
2024/01/08 10:44:18;;;;;;;104.13;44.65;;;;;;;-7.84;82.16;100988.03;5072230;28;20020;-86
2024/01/08 10:46:57;;;;;;;72.57;33.25;;;;;;;-7.84;81.33;100981.34;5072206;28;20348;-86
2024/01/08 10:49:35;;;;;;;73.43;34.30;;;;;;;-7.90;80.99;100975.97;5072034;28;20032;-86
2024/01/08 10:52:09;;;;;;;70.25;33.25;;;;;;;-7.82;80.19;100992.41;5072051;28;20165;-86
2024/01/08 10:54:53;;;;;;;80.53;37.08;;;;;;;-7.85;80.02;100997.28;5072543;28;20101;-87
2024/01/08 10:57:21;;;;;;;86.15;37.45;;;;;;;-7.84;80.23;100983.88;5076643;28;20028;-86
2024/01/08 10:59:48;;;;;;;74.97;32.15;;;;;;;-7.85;80.24;100971.16;5070395;28;20494;-86
2024/01/08 11:02:17;;;;;;;71.70;31.35;;;;;;;-7.72;80.08;100992.84;5053504;28;20190;-87